Time;durP1;ratioP1;P1;durP2;ratioP2;P2;SDS_P1;SDS_P2;PMS_P1;PMS_P2;Temp;Humidity;BMP_temperature;BMP_pressure;BME280_temperature;BME280_humidity;BME280_pressure;Samples;Min_cycle;Max_cycle;Signal;HPM_P1;HPM_P2
2022/01/02 00:02:15;;;;;;;19.25;11.77;;;;;;;;;;10349304;28;20813;-75
2022/01/02 00:07:17;;;;;;;10.77;7.13;;;;;;;;;;10364866;28;20208;-75
2022/01/02 00:12:21;;;;;;;9.43;6.85;;;;;;;;;;10369014;28;20887;-75
2022/01/02 00:17:23;;;;;;;9.13;7.50;;;;;;;;;;10365316;28;20203;-75
2022/01/02 00:22:32;;;;;;;9.25;6.22;;;;;;;;;;10367026;28;20212;-76
2022/01/02 00:27:35;;;;;;;9.50;7.55;;;;;;;;;;10363417;28;20294;-76
2022/01/02 00:32:37;;;;;;;12.30;6.88;;;;;;;;;;10349311;28;20239;-75
2022/01/02 00:37:40;;;;;;;8.55;6.50;;;;;;;;;;10365834;28;20321;-75
2022/01/02 00:42:44;;;;;;;7.93;7.00;;;;;;;;;;10363850;28;20830;-75
2022/01/02 00:47:53;;;;;;;10.75;8.02;;;;;;;;;;10365444;28;20219;-75
2022/01/02 00:52:57;;;;;;;8.25;7.22;;;;;;;;;;10365377;28;20712;-75
2022/01/02 00:58:02;;;;;;;7.70;6.57;;;;;;;;;;10359896;28;20212;-75
2022/01/02 01:03:07;;;;;;;10.00;7.00;;;;;;;;;;10344253;28;20406;-76
2022/01/02 01:08:09;;;;;;;10.02;7.05;;;;;;;;;;10343287;28;20216;-75
2022/01/02 01:13:10;;;;;;;8.18;6.50;;;;;;;;;;10354439;28;20310;-75
2022/01/02 01:18:12;;;;;;;12.93;8.27;;;;;;;;;;10345386;28;20204;-75
2022/01/02 01:23:16;;;;;;;13.35;9.57;;;;;;;;;;10346806;28;20219;-75
2022/01/02 01:28:18;;;;;;;10.25;7.18;;;;;;;;;;10341418;28;20706;-75
2022/01/02 01:33:19;;;;;;;8.63;7.40;;;;;;;;;;10344112;28;20681;-75
2022/01/02 01:38:20;;;;;;;11.50;7.38;;;;;;;;;;10358196;28;20199;-75
2022/01/02 01:43:31;;;;;;;8.73;6.75;;;;;;;;;;10363478;28;20196;-75
2022/01/02 01:48:32;;;;;;;9.30;7.78;;;;;;;;;;10343921;28;20222;-76
2022/01/02 01:53:33;;;;;;;9.77;7.78;;;;;;;;;;10344952;28;20195;-75
2022/01/02 01:58:34;;;;;;;8.55;6.97;;;;;;;;;;10365744;28;20199;-75
2022/01/02 02:03:36;;;;;;;9.02;7.30;;;;;;;;;;10342542;28;20219;-76
2022/01/02 02:08:39;;;;;;;8.88;7.47;;;;;;;;;;10342728;28;20239;-75
2022/01/02 02:13:41;;;;;;;10.40;7.03;;;;;;;;;;10342089;28;20792;-75
2022/01/02 02:18:42;;;;;;;9.43;7.25;;;;;;;;;;10344204;28;20261;-75
2022/01/02 02:23:46;;;;;;;7.78;7.07;;;;;;;;;;10343225;28;20196;-75
2022/01/02 02:28:48;;;;;;;8.70;7.38;;;;;;;;;;10357000;28;20830;-76
2022/01/02 02:33:49;;;;;;;8.70;7.35;;;;;;;;;;10358934;28;20212;-75
2022/01/02 02:38:50;;;;;;;7.60;6.90;;;;;;;;;;10341953;28;20229;-76
2022/01/02 02:44:00;;;;;;;9.80;7.32;;;;;;;;;;10343806;28;20211;-76
2022/01/02 02:49:05;;;;;;;9.13;6.70;;;;;;;;;;10365854;28;20223;-76
2022/01/02 02:54:07;;;;;;;7.43;6.72;;;;;;;;;;10371641;28;20199;-75
2022/01/02 02:59:09;;;;;;;9.05;6.45;;;;;;;;;;10366830;28;20210;-75
2022/01/02 03:04:11;;;;;;;8.90;6.85;;;;;;;;;;10367929;28;20866;-76
2022/01/02 03:09:12;;;;;;;9.57;7.05;;;;;;;;;;10351070;28;21006;-76
2022/01/02 03:14:15;;;;;;;12.13;7.30;;;;;;;;;;10353127;28;20231;-76
2022/01/02 03:19:18;;;;;;;10.60;7.90;;;;;;;;;;10351756;28;20245;-76
2022/01/02 03:24:20;;;;;;;10.50;6.40;;;;;;;;;;10344023;28;20936;-76
2022/01/02 03:29:22;;;;;;;8.63;7.70;;;;;;;;;;10350754;28;20315;-76
2022/01/02 03:34:24;;;;;;;7.30;6.55;;;;;;;;;;10349880;28;20218;-76
2022/01/02 03:39:26;;;;;;;9.27;6.03;;;;;;;;;;10342550;28;20200;-76
2022/01/02 03:44:27;;;;;;;11.40;6.60;;;;;;;;;;10347496;28;20208;-75
2022/01/02 03:49:28;;;;;;;10.35;7.20;;;;;;;;;;10348359;28;21032;-75
2022/01/02 03:54:29;;;;;;;28.35;18.35;;;;;;;;;;10359386;28;20246;-75
2022/01/02 03:59:30;;;;;;;10.15;8.40;;;;;;;;;;10345698;28;20199;-76
2022/01/02 04:04:31;;;;;;;10.05;7.32;;;;;;;;;;10348084;28;20218;-76
2022/01/02 04:09:33;;;;;;;6.65;6.05;;;;;;;;;;10357519;28;20244;-76
2022/01/02 04:14:34;;;;;;;5.95;5.32;;;;;;;;;;10352733;28;20622;-76
2022/01/02 04:19:38;;;;;;;6.05;5.50;;;;;;;;;;10344947;28;20831;-76
2022/01/02 04:24:42;;;;;;;6.43;5.68;;;;;;;;;;10349873;28;20220;-76
2022/01/02 04:30:03;;;;;;;6.88;5.35;;;;;;;;;;10361265;28;20227;-75
2022/01/02 04:35:05;;;;;;;8.13;5.43;;;;;;;;;;10344223;28;20226;-76
2022/01/02 04:40:06;;;;;;;6.22;5.70;;;;;;;;;;10364511;28;20212;-76
2022/01/02 04:45:08;;;;;;;7.45;5.97;;;;;;;;;;10342804;28;20201;-76
2022/01/02 04:50:09;;;;;;;9.20;5.88;;;;;;;;;;10360943;28;20342;-76
2022/01/02 04:55:10;;;;;;;10.07;6.28;;;;;;;;;;10342250;28;20196;-76
2022/01/02 05:00:12;;;;;;;6.45;5.85;;;;;;;;;;10357402;28;20692;-76
2022/01/02 05:05:14;;;;;;;8.15;6.00;;;;;;;;;;10343925;28;20610;-76
2022/01/02 05:10:16;;;;;;;6.70;6.07;;;;;;;;;;10345893;28;20249;-75
2022/01/02 05:15:18;;;;;;;11.88;6.53;;;;;;;;;;10354191;28;20195;-76
2022/01/02 05:20:19;;;;;;;7.70;6.13;;;;;;;;;;10347516;28;20200;-76
2022/01/02 05:25:20;;;;;;;8.98;6.03;;;;;;;;;;10358962;28;20265;-76
2022/01/02 05:30:21;;;;;;;8.07;6.28;;;;;;;;;;10340200;28;20219;-76
2022/01/02 05:35:23;;;;;;;8.90;7.25;;;;;;;;;;10342476;28;20196;-76
2022/01/02 05:40:25;;;;;;;6.50;5.50;;;;;;;;;;10344642;28;20704;-76
2022/01/02 05:45:26;;;;;;;6.20;5.60;;;;;;;;;;10348981;28;20282;-76
2022/01/02 05:50:27;;;;;;;6.20;5.68;;;;;;;;;;10348503;28;20282;-76
2022/01/02 05:55:29;;;;;;;5.07;4.72;;;;;;;;;;10367818;28;20318;-76
2022/01/02 06:00:31;;;;;;;5.72;5.22;;;;;;;;;;10348800;28;20208;-76
2022/01/02 06:05:36;;;;;;;4.63;4.22;;;;;;;;;;10360685;28;20203;-75
2022/01/02 06:10:38;;;;;;;5.72;4.90;;;;;;;;;;10345111;28;20219;-76
2022/01/02 06:15:39;;;;;;;11.05;6.18;;;;;;;;;;10338596;28;20226;-76
2022/01/02 06:20:41;;;;;;;9.05;6.13;;;;;;;;;;10335951;28;20693;-76
2022/01/02 06:25:43;;;;;;;7.10;4.97;;;;;;;;;;10334990;28;20586;-75
2022/01/02 06:30:44;;;;;;;4.10;3.80;;;;;;;;;;10343292;28;20223;-76
2022/01/02 06:35:46;;;;;;;6.05;3.50;;;;;;;;;;10350127;28;20203;-76
2022/01/02 06:40:48;;;;;;;4.40;3.17;;;;;;;;;;10339811;28;21209;-76
2022/01/02 06:45:50;;;;;;;3.05;2.80;;;;;;;;;;10340717;28;20738;-76
2022/01/02 06:50:51;;;;;;;3.35;3.05;;;;;;;;;;10342363;28;20883;-76
2022/01/02 06:55:52;;;;;;;4.53;2.80;;;;;;;;;;10337411;28;20204;-76
2022/01/02 07:00:55;;;;;;;3.47;3.17;;;;;;;;;;10338115;28;20581;-76
2022/01/02 07:06:00;;;;;;;3.53;2.90;;;;;;;;;;10335709;28;20200;-76
2022/01/02 07:11:02;;;;;;;3.13;2.83;;;;;;;;;;10338840;28;20258;-75
2022/01/02 07:16:03;;;;;;;3.17;2.40;;;;;;;;;;10351576;28;20204;-76
2022/01/02 07:21:04;;;;;;;3.58;2.65;;;;;;;;;;10354488;28;20192;-76
2022/01/02 07:26:06;;;;;;;2.83;2.60;;;;;;;;;;10343270;28;20224;-76
2022/01/02 07:31:07;;;;;;;2.85;2.67;;;;;;;;;;10353263;28;20229;-76
2022/01/02 07:36:08;;;;;;;4.00;2.45;;;;;;;;;;10372161;28;20714;-76
2022/01/02 07:41:09;;;;;;;2.72;2.53;;;;;;;;;;10364811;28;20314;-75
2022/01/02 07:46:10;;;;;;;3.65;2.65;;;;;;;;;;10366419;28;20197;-75
2022/01/02 07:51:11;;;;;;;3.83;3.05;;;;;;;;;;10360706;28;20231;-76
2022/01/02 07:56:12;;;;;;;4.93;3.40;;;;;;;;;;10366272;28;21097;-77
2022/01/02 08:01:14;;;;;;;3.92;2.83;;;;;;;;;;10357561;28;20223;-77
2022/01/02 08:06:15;;;;;;;2.83;2.30;;;;;;;;;;10375270;28;20291;-77
2022/01/02 08:11:17;;;;;;;3.00;2.40;;;;;;;;;;10380250;28;20706;-79
2022/01/02 08:16:18;;;;;;;4.38;2.42;;;;;;;;;;10358688;28;20296;-78
2022/01/02 08:21:19;;;;;;;7.57;2.63;;;;;;;;;;10375519;28;20195;-78
2022/01/02 08:26:20;;;;;;;3.47;2.53;;;;;;;;;;10380362;28;20224;-78
2022/01/02 08:31:21;;;;;;;5.15;2.15;;;;;;;;;;10357699;28;20263;-77
2022/01/02 08:36:22;;;;;;;3.58;2.58;;;;;;;;;;10371766;28;20288;-78
2022/01/02 08:41:23;;;;;;;6.53;2.60;;;;;;;;;;10369989;28;20208;-78
2022/01/02 08:46:24;;;;;;;6.50;2.60;;;;;;;;;;10353437;28;20210;-78
2022/01/02 08:51:27;;;;;;;7.32;2.78;;;;;;;;;;10355239;28;20692;-78
2022/01/02 08:56:28;;;;;;;4.65;2.42;;;;;;;;;;10367439;28;20203;-78
2022/01/02 09:01:29;;;;;;;4.55;2.92;;;;;;;;;;10373414;28;20207;-78
2022/01/02 09:06:31;;;;;;;4.03;2.28;;;;;;;;;;10354132;28;20204;-78
2022/01/02 09:11:32;;;;;;;2.40;2.30;;;;;;;;;;10372896;28;20215;-78
2022/01/02 09:16:34;;;;;;;2.60;2.40;;;;;;;;;;10370892;28;20908;-77
2022/01/02 09:21:35;;;;;;;2.03;1.90;;;;;;;;;;10369267;28;20282;-78
2022/01/02 09:26:36;;;;;;;5.15;2.35;;;;;;;;;;10369211;28;20208;-77
2022/01/02 09:31:37;;;;;;;6.00;2.50;;;;;;;;;;10358492;28;20228;-78
2022/01/02 09:36:38;;;;;;;5.15;2.65;;;;;;;;;;10374529;28;20242;-79
2022/01/02 09:41:40;;;;;;;4.82;2.47;;;;;;;;;;10373495;28;20644;-79
2022/01/02 09:46:41;;;;;;;4.53;3.08;;;;;;;;;;10370317;28;20243;-78
2022/01/02 09:51:43;;;;;;;7.80;2.30;;;;;;;;;;10374242;28;20226;-80
2022/01/02 09:56:44;;;;;;;3.10;2.78;;;;;;;;;;10372693;28;20265;-78
2022/01/02 10:01:45;;;;;;;3.45;2.72;;;;;;;;;;10354280;28;20331;-79
2022/01/02 10:06:47;;;;;;;4.95;3.95;;;;;;;;;;10372165;28;20210;-78
2022/01/02 10:11:48;;;;;;;20.65;15.98;;;;;;;;;;10374070;28;20258;-78
2022/01/02 10:16:50;;;;;;;475.65;174.93;;;;;;;;;;10377256;28;21386;-79
2022/01/02 10:21:58;;;;;;;55.20;32.97;;;;;;;;;;10383268;28;20264;-79
2022/01/02 10:26:59;;;;;;;100.93;40.60;;;;;;;;;;10356677;28;20223;-78
2022/01/02 10:32:00;;;;;;;52.10;30.63;;;;;;;;;;10376267;28;20227;-78
2022/01/02 10:37:01;;;;;;;43.50;25.95;;;;;;;;;;10374050;28;20211;-78
2022/01/02 10:42:16;;;;;;;12.88;6.50;;;;;;;;;;10351047;28;20288;-79
2022/01/02 10:47:18;;;;;;;3.38;2.83;;;;;;;;;;10381206;28;20423;-78
2022/01/02 10:52:22;;;;;;;5.90;2.80;;;;;;;;;;10362427;28;20207;-80
2022/01/02 10:57:23;;;;;;;4.53;1.83;;;;;;;;;;10373572;28;20848;-76
2022/01/02 11:02:25;;;;;;;4.10;1.80;;;;;;;;;;10370716;28;20337;-78
2022/01/02 11:07:26;;;;;;;3.75;2.22;;;;;;;;;;10367951;28;21060;-79
2022/01/02 11:12:28;;;;;;;3.85;2.58;;;;;;;;;;10392181;28;20218;-78
2022/01/02 11:17:29;;;;;;;3.78;2.45;;;;;;;;;;10373967;28;20257;-79
2022/01/02 11:22:33;;;;;;;2.85;2.00;;;;;;;;;;10357119;28;20207;-79
2022/01/02 11:27:39;;;;;;;5.82;1.83;;;;;;;;;;10377577;28;20211;-80
2022/01/02 11:32:40;;;;;;;5.50;2.65;;;;;;;;;;10362173;28;20215;-80
2022/01/02 11:37:52;;;;;;;4.38;2.20;;;;;;;;;;10365020;28;20836;-80
2022/01/02 11:42:53;;;;;;;2.25;2.05;;;;;;;;;;10379148;28;20208;-80
2022/01/02 11:47:55;;;;;;;3.92;1.75;;;;;;;;;;10379267;28;20296;-78
2022/01/02 11:53:17;;;;;;;4.53;1.98;;;;;;;;;;10361895;28;20814;-79
2022/01/02 11:58:50;;;;;;;3.85;2.17;;;;;;;;;;10378134;28;20286;-79
2022/01/02 12:03:51;;;;;;;5.32;1.77;;;;;;;;;;10365280;28;20223;-79
2022/01/02 12:08:53;;;;;;;3.95;1.75;;;;;;;;;;10353914;28;20255;-80
2022/01/02 12:14:04;;;;;;;3.65;1.85;;;;;;;;;;10380394;28;20204;-78
2022/01/02 12:19:06;;;;;;;1.60;1.60;;;;;;;;;;10374434;28;20196;-79
2022/01/02 12:24:12;;;;;;;1.60;1.60;;;;;;;;;;10375953;28;20288;-79
2022/01/02 12:29:13;;;;;;;1.80;1.70;;;;;;;;;;10376939;28;20587;-79
2022/01/02 12:34:17;;;;;;;3.33;2.13;;;;;;;;;;10357817;28;20212;-81
2022/01/02 12:39:32;;;;;;;3.15;2.50;;;;;;;;;;10362075;28;20216;-81
2022/01/02 12:44:35;;;;;;;7.20;2.70;;;;;;;;;;10385908;28;20295;-80
2022/01/02 12:49:37;;;;;;;2.28;2.15;;;;;;;;;;10369781;28;20219;-81
2022/01/02 12:54:39;;;;;;;6.43;2.63;;;;;;;;;;10356096;28;20200;-81
2022/01/02 12:59:42;;;;;;;4.45;2.20;;;;;;;;;;10381403;28;20223;-79
2022/01/02 13:04:45;;;;;;;5.40;2.28;;;;;;;;;;10391418;28;20220;-80
2022/01/02 13:09:46;;;;;;;5.60;2.28;;;;;;;;;;10389453;28;20221;-78
2022/01/02 13:15:05;;;;;;;6.97;2.20;;;;;;;;;;10388097;28;20243;-79
2022/01/02 13:20:20;;;;;;;6.07;2.42;;;;;;;;;;10376993;28;20204;-79
2022/01/02 13:25:26;;;;;;;6.68;2.97;;;;;;;;;;10378728;28;20413;-82
2022/01/02 13:30:28;;;;;;;5.28;2.88;;;;;;;;;;10372606;28;20226;-82
2022/01/02 13:35:30;;;;;;;5.40;3.38;;;;;;;;;;10374282;28;20278;-82
2022/01/02 13:40:32;;;;;;;2.95;2.40;;;;;;;;;;10362464;28;20620;-82
2022/01/02 13:45:35;;;;;;;6.57;2.50;;;;;;;;;;10357670;28;20211;-82
2022/01/02 13:50:36;;;;;;;4.82;2.85;;;;;;;;;;10358859;28;20219;-82
2022/01/02 13:55:37;;;;;;;9.90;2.50;;;;;;;;;;10376106;28;20219;-81
2022/01/02 14:00:43;;;;;;;3.88;1.83;;;;;;;;;;10363872;28;21081;-81
2022/01/02 14:05:47;;;;;;;5.65;2.53;;;;;;;;;;10357275;28;20208;-80
2022/01/02 14:11:07;;;;;;;7.22;2.35;;;;;;;;;;10379854;28;20226;-79
2022/01/02 14:16:09;;;;;;;2.17;1.98;;;;;;;;;;10359032;28;20192;-79
2022/01/02 14:21:10;;;;;;;1.98;1.65;;;;;;;;;;10370535;28;20216;-80
2022/01/02 14:26:11;;;;;;;6.28;1.95;;;;;;;;;;10369635;28;20214;-80
2022/01/02 14:31:12;;;;;;;3.00;2.28;;;;;;;;;;10370318;28;20228;-79
2022/01/02 14:36:14;;;;;;;5.03;2.47;;;;;;;;;;10372526;28;20253;-80
2022/01/02 14:41:17;;;;;;;3.13;1.98;;;;;;;;;;10369618;28;20203;-80
2022/01/02 14:46:18;;;;;;;3.55;2.22;;;;;;;;;;10356597;28;20195;-80
2022/01/02 14:51:19;;;;;;;3.33;2.92;;;;;;;;;;10379330;28;20222;-80
2022/01/02 14:56:21;;;;;;;3.42;1.95;;;;;;;;;;10379271;28;20610;-80
2022/01/02 15:01:24;;;;;;;2.88;1.73;;;;;;;;;;10379557;28;20215;-79
2022/01/02 15:06:25;;;;;;;2.15;1.80;;;;;;;;;;10376753;28;20200;-78
2022/01/02 15:11:27;;;;;;;3.38;1.88;;;;;;;;;;10374250;28;20231;-79
2022/01/02 15:16:28;;;;;;;2.17;1.70;;;;;;;;;;10372222;28;20273;-80
2022/01/02 15:21:29;;;;;;;3.80;1.52;;;;;;;;;;10373156;28;20211;-79
2022/01/02 15:26:30;;;;;;;3.10;2.78;;;;;;;;;;10372293;28;20222;-77
2022/01/02 15:31:31;;;;;;;1.83;1.83;;;;;;;;;;10372996;28;20278;-79
2022/01/02 15:36:32;;;;;;;1.88;1.77;;;;;;;;;;10373666;28;20205;-79
2022/01/02 15:41:33;;;;;;;2.53;2.42;;;;;;;;;;10368543;28;20196;-76
2022/01/02 15:46:34;;;;;;;3.10;2.75;;;;;;;;;;10362025;28;20299;-76
2022/01/02 15:51:36;;;;;;;2.25;2.20;;;;;;;;;;10363264;28;20234;-76
2022/01/02 15:56:37;;;;;;;5.22;3.67;;;;;;;;;;10357702;28;20203;-77
2022/01/02 16:01:38;;;;;;;4.63;2.80;;;;;;;;;;10362741;28;20330;-76
2022/01/02 16:06:39;;;;;;;3.53;3.28;;;;;;;;;;10365615;28;20228;-76
2022/01/02 16:11:40;;;;;;;7.05;3.97;;;;;;;;;;10364809;28;20223;-76
2022/01/02 16:16:41;;;;;;;3.30;3.10;;;;;;;;;;10362126;28;20325;-76
2022/01/02 16:21:43;;;;;;;5.03;3.95;;;;;;;;;;10363328;28;20806;-77
2022/01/02 16:26:44;;;;;;;3.47;3.22;;;;;;;;;;10344567;28;20980;-77
2022/01/02 16:31:45;;;;;;;3.05;2.85;;;;;;;;;;10361728;28;20322;-76
2022/01/02 16:36:46;;;;;;;3.20;3.00;;;;;;;;;;10360418;28;20207;-76
2022/01/02 16:41:47;;;;;;;2.60;2.50;;;;;;;;;;10352002;28;20207;-76
2022/01/02 16:46:48;;;;;;;3.28;2.40;;;;;;;;;;10359244;28;20199;-76
2022/01/02 16:51:49;;;;;;;3.05;2.75;;;;;;;;;;10364289;28;20215;-77
2022/01/02 16:56:50;;;;;;;3.28;3.08;;;;;;;;;;10358535;28;20249;-76
2022/01/02 17:01:51;;;;;;;2.40;2.30;;;;;;;;;;10356578;28;21664;-77
2022/01/02 17:06:52;;;;;;;2.70;2.53;;;;;;;;;;10351347;28;20204;-76
2022/01/02 17:11:53;;;;;;;2.60;2.40;;;;;;;;;;10338176;28;20230;-77
2022/01/02 17:16:56;;;;;;;4.35;3.33;;;;;;;;;;10353562;28;20199;-77
2022/01/02 17:21:57;;;;;;;3.42;3.10;;;;;;;;;;10356278;28;20227;-77
2022/01/02 17:26:58;;;;;;;3.70;3.50;;;;;;;;;;10354433;28;20266;-77
2022/01/02 17:32:04;;;;;;;2.80;2.60;;;;;;;;;;10355228;28;20262;-77
2022/01/02 17:37:06;;;;;;;2.30;2.10;;;;;;;;;;10357325;28;20211;-76
2022/01/02 17:42:08;;;;;;;1.90;1.77;;;;;;;;;;10348561;28;20196;-76
2022/01/02 17:47:10;;;;;;;3.35;2.00;;;;;;;;;;10352400;28;20263;-77
2022/01/02 17:52:11;;;;;;;1.73;1.63;;;;;;;;;;10363307;28;20216;-77
2022/01/02 17:57:13;;;;;;;2.58;2.30;;;;;;;;;;10363044;28;20582;-77
2022/01/02 18:02:14;;;;;;;1.70;1.60;;;;;;;;;;10363059;28;20277;-77
2022/01/02 18:07:15;;;;;;;2.35;2.20;;;;;;;;;;10364161;28;20694;-77
2022/01/02 18:12:18;;;;;;;2.65;2.25;;;;;;;;;;10354989;28;20639;-77
2022/01/02 18:17:19;;;;;;;1.85;1.75;;;;;;;;;;10357935;28;21007;-77
2022/01/02 18:22:20;;;;;;;2.85;2.15;;;;;;;;;;10367992;28;20207;-78
2022/01/02 18:27:22;;;;;;;3.38;2.05;;;;;;;;;;10357849;28;20222;-77
2022/01/02 18:32:23;;;;;;;2.95;1.98;;;;;;;;;;10358658;28;20312;-76
2022/01/02 18:37:24;;;;;;;1.95;1.85;;;;;;;;;;10359769;28;20206;-77
2022/01/02 18:42:25;;;;;;;3.35;2.33;;;;;;;;;;10346850;28;20253;-76
2022/01/02 18:47:26;;;;;;;2.58;2.17;;;;;;;;;;10353485;28;20652;-76
2022/01/02 18:52:27;;;;;;;3.90;2.65;;;;;;;;;;10358869;28;20230;-76
2022/01/02 18:57:28;;;;;;;4.65;2.55;;;;;;;;;;10364526;28;20207;-77
2022/01/02 19:02:29;;;;;;;5.10;2.45;;;;;;;;;;10361133;28;24653;-77
2022/01/02 19:07:31;;;;;;;4.38;2.58;;;;;;;;;;10351650;28;20257;-76
2022/01/02 19:12:32;;;;;;;4.32;2.60;;;;;;;;;;10355167;28;20211;-77
2022/01/02 19:17:33;;;;;;;3.60;2.70;;;;;;;;;;10362210;28;20619;-77
2022/01/02 19:22:34;;;;;;;2.35;2.15;;;;;;;;;;10366170;28;20224;-77
2022/01/02 19:27:35;;;;;;;2.78;2.45;;;;;;;;;;10366939;28;20204;-77
2022/01/02 19:32:36;;;;;;;3.33;2.83;;;;;;;;;;10377905;28;20313;-77
2022/01/02 19:37:37;;;;;;;4.28;3.35;;;;;;;;;;10354552;28;20199;-76
2022/01/02 19:42:38;;;;;;;4.38;2.60;;;;;;;;;;10370457;28;20200;-76
2022/01/02 19:47:40;;;;;;;4.45;3.25;;;;;;;;;;10364790;28;20963;-76
2022/01/02 19:52:41;;;;;;;3.92;3.30;;;;;;;;;;10363974;28;20211;-77
2022/01/02 19:57:42;;;;;;;4.57;3.30;;;;;;;;;;10362423;28;20226;-77
2022/01/02 20:02:43;;;;;;;3.65;3.45;;;;;;;;;;10347029;28;20208;-77
2022/01/02 20:07:44;;;;;;;6.05;4.18;;;;;;;;;;10372853;28;20208;-77
2022/01/02 20:12:46;;;;;;;3.65;3.20;;;;;;;;;;10359287;28;20207;-77
2022/01/02 20:17:47;;;;;;;5.10;4.03;;;;;;;;;;10368122;28;20844;-76
2022/01/02 20:22:48;;;;;;;5.18;3.95;;;;;;;;;;10357827;28;20203;-76
2022/01/02 20:27:49;;;;;;;4.10;2.30;;;;;;;;;;10358501;28;20207;-75
2022/01/02 20:32:50;;;;;;;2.78;1.95;;;;;;;;;;10357191;28;20339;-76
2022/01/02 20:37:51;;;;;;;11.90;7.05;;;;;;;;;;10359299;28;20196;-76
2022/01/02 20:42:52;;;;;;;3.80;3.35;;;;;;;;;;10356340;28;20204;-77
2022/01/02 20:47:53;;;;;;;5.35;3.20;;;;;;;;;;10354746;28;20195;-76
2022/01/02 20:52:54;;;;;;;2.72;2.63;;;;;;;;;;10355618;28;20323;-76
2022/01/02 20:57:55;;;;;;;3.28;3.00;;;;;;;;;;10361961;28;20212;-76
2022/01/02 21:02:57;;;;;;;3.08;2.70;;;;;;;;;;10353567;28;20227;-77
2022/01/02 21:07:58;;;;;;;4.10;3.30;;;;;;;;;;10360681;28;20334;-76
2022/01/02 21:12:59;;;;;;;4.63;4.22;;;;;;;;;;10332895;28;20208;-77
2022/01/02 21:18:01;;;;;;;2.75;2.47;;;;;;;;;;10359222;28;20200;-76
2022/01/02 21:23:02;;;;;;;2.70;2.50;;;;;;;;;;10354417;28;20358;-76
2022/01/02 21:28:03;;;;;;;2.35;2.25;;;;;;;;;;10358410;28;20227;-76
2022/01/02 21:33:04;;;;;;;2.30;2.20;;;;;;;;;;10352461;28;20314;-76
2022/01/02 21:38:05;;;;;;;3.75;2.20;;;;;;;;;;10354987;28;20212;-76
2022/01/02 21:43:06;;;;;;;3.45;3.15;;;;;;;;;;10354181;28;20715;-76
2022/01/02 21:48:08;;;;;;;3.90;2.78;;;;;;;;;;10349053;28;20273;-77
2022/01/02 21:53:09;;;;;;;6.85;3.03;;;;;;;;;;10350994;28;20354;-76
2022/01/02 21:58:10;;;;;;;4.43;2.75;;;;;;;;;;10342548;28;20215;-76
2022/01/02 22:03:11;;;;;;;4.82;2.92;;;;;;;;;;10352607;28;21083;-76
2022/01/02 22:08:13;;;;;;;3.70;3.40;;;;;;;;;;10359797;28;20235;-76
2022/01/02 22:13:14;;;;;;;5.40;3.65;;;;;;;;;;10358343;28;20200;-76
2022/01/02 22:18:19;;;;;;;5.30;3.53;;;;;;;;;;10363150;28;20214;-76
2022/01/02 22:23:20;;;;;;;3.30;2.80;;;;;;;;;;10361243;28;20199;-76
2022/01/02 22:28:22;;;;;;;3.65;3.33;;;;;;;;;;10344110;28;20564;-76
2022/01/02 22:33:25;;;;;;;5.05;3.80;;;;;;;;;;10356213;28;20308;-77
2022/01/02 22:38:28;;;;;;;3.45;2.60;;;;;;;;;;10355661;28;20258;-76
2022/01/02 22:43:29;;;;;;;5.53;2.65;;;;;;;;;;10353527;28;20204;-76
2022/01/02 22:48:32;;;;;;;4.53;2.53;;;;;;;;;;10355619;28;20215;-77
2022/01/02 22:53:34;;;;;;;3.05;2.75;;;;;;;;;;10354347;28;20211;-76
2022/01/02 22:58:35;;;;;;;7.40;2.63;;;;;;;;;;10351408;28;20238;-77
2022/01/02 23:03:37;;;;;;;2.70;2.50;;;;;;;;;;10357189;28;20223;-76
2022/01/02 23:08:39;;;;;;;2.38;1.98;;;;;;;;;;10364403;28;20228;-77
2022/01/02 23:13:47;;;;;;;2.38;1.13;;;;;;;;;;10359321;28;20200;-79
2022/01/02 23:19:08;;;;;;;4.03;1.52;;;;;;;;;;10384834;28;20203;-80
2022/01/02 23:24:11;;;;;;;1.35;1.23;;;;;;;;;;10364705;28;21907;-80
2022/01/02 23:29:12;;;;;;;0.40;0.40;;;;;;;;;;10382649;28;20238;-79
2022/01/02 23:34:13;;;;;;;0.98;0.30;;;;;;;;;;10366233;28;20211;-78
2022/01/02 23:39:14;;;;;;;0.15;0.15;;;;;;;;;;10378586;28;20207;-79
2022/01/02 23:44:15;;;;;;;0.25;0.17;;;;;;;;;;10375776;28;21047;-78
2022/01/02 23:49:17;;;;;;;0.10;0.10;;;;;;;;;;10376876;28;20231;-78
2022/01/02 23:54:18;;;;;;;0.60;0.10;;;;;;;;;;10353870;28;20196;-78
2022/01/02 23:59:19;;;;;;;0.10;0.10;;;;;;;;;;10369991;28;20793;-78
